Time;durP1;ratioP1;P1;durP2;ratioP2;P2;SDS_P1;SDS_P2;PMS_P1;PMS_P2;Temp;Humidity;BMP_temperature;BMP_pressure;BME280_temperature;BME280_humidity;BME280_pressure;Samples;Min_cycle;Max_cycle;Signal;HPM_P1;HPM_P2
2023/06/29 00:02:25;;;;;;;0.50;0.30;;;;;;;;;;5051833;28;20024;-87
2023/06/29 00:04:54;;;;;;;0.98;0.55;;;;;;;;;;5058320;28;20498;-86
2023/06/29 00:07:20;;;;;;;1.00;0.63;;;;;;;;;;5071716;28;20051;-86
2023/06/29 00:09:47;;;;;;;0.47;0.43;;;;;;;;;;5054220;28;20074;-86
2023/06/29 00:12:13;;;;;;;3.33;0.77;;;;;;;;;;5053151;28;20681;-84
2023/06/29 00:14:41;;;;;;;0.40;0.40;;;;;;;;;;5073508;28;20027;-90
2023/06/29 00:17:14;;;;;;;1.08;0.80;;;;;;;;;;5058056;28;20052;-85
2023/06/29 00:19:40;;;;;;;0.57;0.57;;;;;;;;;;5056193;28;20034;-84
2023/06/29 00:22:08;;;;;;;0.57;0.57;;;;;;;;;;5071002;28;20028;-86
2023/06/29 00:24:42;;;;;;;0.80;0.60;;;;;;;;;;5054035;28;20032;-83
2023/06/29 00:27:08;;;;;;;0.20;0.20;;;;;;;;;;5070932;28;20178;-83
2023/06/29 00:29:33;;;;;;;0.45;0.45;;;;;;;;;;5071085;28;20043;-86
2023/06/29 00:31:59;;;;;;;1.70;1.05;;;;;;;;;;5052966;28;20022;-85
2023/06/29 00:34:24;;;;;;;1.08;0.57;;;;;;;;;;5073791;28;20016;-87
2023/06/29 00:36:50;;;;;;;0.60;0.50;;;;;;;;;;5054391;28;20060;-85
2023/06/29 00:39:15;;;;;;;0.30;0.30;;;;;;;;;;5072476;28;20468;-86
2023/06/29 00:41:41;;;;;;;0.75;0.52;;;;;;;;;;5051398;28;20074;-88
2023/06/29 00:44:08;;;;;;;0.50;0.43;;;;;;;;;;5051573;28;20029;-85
2023/06/29 00:46:34;;;;;;;0.80;0.63;;;;;;;;;;5072675;28;20025;-86
2023/06/29 00:48:59;;;;;;;1.08;0.45;;;;;;;;;;5054476;28;20029;-83
2023/06/29 00:51:26;;;;;;;1.10;1.00;;;;;;;;;;5072448;28;20033;-82
2023/06/29 00:53:51;;;;;;;0.40;0.40;;;;;;;;;;5069425;28;20032;-84
2023/06/29 00:56:17;;;;;;;0.20;0.20;;;;;;;;;;5070033;28;20037;-87
2023/06/29 00:58:43;;;;;;;0.80;0.70;;;;;;;;;;5073152;28;20056;-84
2023/06/29 01:01:08;;;;;;;1.05;0.47;;;;;;;;;;5079265;28;20059;-83
2023/06/29 01:03:36;;;;;;;1.33;1.02;;;;;;;;;;5080431;28;20100;-83
2023/06/29 01:06:04;;;;;;;1.17;0.90;;;;;;;;;;5077677;28;20449;-82
2023/06/29 01:08:36;;;;;;;1.25;0.70;;;;;;;;;;5076222;28;20036;-85
2023/06/29 01:11:03;;;;;;;2.33;1.08;;;;;;;;;;5076699;28;20086;-83
2023/06/29 01:13:31;;;;;;;2.85;1.15;;;;;;;;;;5076722;28;20357;-84
2023/06/29 01:15:58;;;;;;;0.93;0.85;;;;;;;;;;5056910;28;20025;-83
2023/06/29 01:18:25;;;;;;;0.45;0.30;;;;;;;;;;5058885;28;20024;-82
2023/06/29 01:20:51;;;;;;;1.30;0.85;;;;;;;;;;5076894;28;20074;-82
2023/06/29 01:23:25;;;;;;;0.60;0.60;;;;;;;;;;5058016;28;20033;-85
2023/06/29 01:25:51;;;;;;;0.65;0.65;;;;;;;;;;5073311;28;20400;-85
2023/06/29 01:28:17;;;;;;;1.25;0.73;;;;;;;;;;5060530;28;20031;-85
2023/06/29 01:30:49;;;;;;;0.90;0.60;;;;;;;;;;5077268;28;20036;-81
2023/06/29 01:33:17;;;;;;;1.10;0.70;;;;;;;;;;5075737;28;20024;-84
2023/06/29 01:35:43;;;;;;;0.90;0.50;;;;;;;;;;5058520;28;20032;-84
2023/06/29 01:38:15;;;;;;;0.50;0.50;;;;;;;;;;5076428;28;20028;-83
2023/06/29 01:40:44;;;;;;;1.98;1.10;;;;;;;;;;5057743;28;20365;-83
2023/06/29 01:43:10;;;;;;;0.85;0.65;;;;;;;;;;5055650;28;20054;-83
2023/06/29 01:45:36;;;;;;;1.40;0.57;;;;;;;;;;5074886;28;21515;-85
2023/06/29 01:48:03;;;;;;;1.75;0.93;;;;;;;;;;5060314;28;20028;-84
2023/06/29 01:50:29;;;;;;;0.82;0.77;;;;;;;;;;5075253;28;20036;-84
2023/06/29 01:52:54;;;;;;;1.38;1.17;;;;;;;;;;5076810;28;20103;-86
2023/06/29 01:55:20;;;;;;;2.35;1.08;;;;;;;;;;5055663;28;20115;-88
2023/06/29 01:57:46;;;;;;;1.20;0.65;;;;;;;;;;5055386;28;20396;-86
2023/06/29 02:00:12;;;;;;;0.32;0.32;;;;;;;;;;5072823;28;20024;-85
2023/06/29 02:02:38;;;;;;;0.77;0.55;;;;;;;;;;5054696;28;20021;-87
2023/06/29 02:05:04;;;;;;;2.55;1.15;;;;;;;;;;5056199;28;20039;-82
2023/06/29 02:07:29;;;;;;;1.15;1.00;;;;;;;;;;5074779;28;20530;-84
2023/06/29 02:09:55;;;;;;;3.60;1.05;;;;;;;;;;5076610;28;20024;-84
2023/06/29 02:12:20;;;;;;;2.72;1.38;;;;;;;;;;5058797;28;20468;-89
2023/06/29 02:14:46;;;;;;;1.30;0.95;;;;;;;;;;5076092;28;20365;-86
2023/06/29 02:17:12;;;;;;;1.50;0.85;;;;;;;;;;5055766;28;20078;-85
2023/06/29 02:19:37;;;;;;;1.65;0.95;;;;;;;;;;5075159;28;20512;-85
2023/06/29 02:22:03;;;;;;;1.48;1.10;;;;;;;;;;5056674;28;20039;-84
2023/06/29 02:24:28;;;;;;;1.23;1.00;;;;;;;;;;5059575;28;20037;-87
2023/06/29 02:26:54;;;;;;;1.75;1.30;;;;;;;;;;5058269;28;20078;-87
2023/06/29 02:29:20;;;;;;;1.73;1.42;;;;;;;;;;5076680;28;20074;-85
2023/06/29 02:31:45;;;;;;;1.13;0.80;;;;;;;;;;5055402;28;20025;-86
2023/06/29 02:34:10;;;;;;;0.73;0.50;;;;;;;;;;5056507;28;20032;-86
2023/06/29 02:36:36;;;;;;;2.42;1.40;;;;;;;;;;5075609;28;20095;-86
2023/06/29 02:39:01;;;;;;;2.03;1.10;;;;;;;;;;5076503;28;20040;-86
2023/06/29 02:41:27;;;;;;;2.00;1.13;;;;;;;;;;5059174;28;20037;-87
2023/06/29 02:43:53;;;;;;;0.65;0.65;;;;;;;;;;5075909;28;20025;-85
2023/06/29 02:46:19;;;;;;;1.10;0.88;;;;;;;;;;5075264;28;20023;-84
2023/06/29 02:48:44;;;;;;;1.42;0.47;;;;;;;;;;5078194;28;20024;-85
2023/06/29 02:51:12;;;;;;;2.38;0.88;;;;;;;;;;5075975;28;20418;-84
2023/06/29 02:53:38;;;;;;;1.40;0.98;;;;;;;;;;5075578;28;20052;-84
2023/06/29 02:56:03;;;;;;;0.45;0.45;;;;;;;;;;5057477;28;20476;-85
2023/06/29 02:58:29;;;;;;;1.73;1.40;;;;;;;;;;5056621;28;20040;-85
2023/06/29 03:00:55;;;;;;;1.02;0.88;;;;;;;;;;5057168;28;20028;-85
2023/06/29 03:03:20;;;;;;;1.38;1.15;;;;;;;;;;5073490;28;20036;-84
2023/06/29 03:05:45;;;;;;;2.08;1.52;;;;;;;;;;5059829;28;20035;-86
2023/06/29 03:08:11;;;;;;;1.08;0.88;;;;;;;;;;5073662;28;20024;-90
2023/06/29 03:10:37;;;;;;;2.38;1.52;;;;;;;;;;5080469;28;20074;-85
2023/06/29 03:13:02;;;;;;;2.22;1.17;;;;;;;;;;5078840;28;20071;-87
2023/06/29 03:15:27;;;;;;;0.85;0.70;;;;;;;;;;5076414;28;20038;-90
2023/06/29 03:17:53;;;;;;;1.02;0.93;;;;;;;;;;5079183;28;20032;-89
2023/06/29 03:20:18;;;;;;;1.98;1.05;;;;;;;;;;5063904;28;20033;-87
2023/06/29 03:22:44;;;;;;;3.08;1.63;;;;;;;;;;5077769;28;20035;-88
2023/06/29 03:25:10;;;;;;;2.40;1.67;;;;;;;;;;5060977;28;20399;-86
2023/06/29 03:27:37;;;;;;;1.95;1.52;;;;;;;;;;5076275;28;20044;-86
2023/06/29 03:30:03;;;;;;;1.52;1.42;;;;;;;;;;5077603;28;20037;-90
2023/06/29 03:32:28;;;;;;;1.35;1.13;;;;;;;;;;5076741;28;20045;-87
2023/06/29 03:34:54;;;;;;;2.45;1.98;;;;;;;;;;5077693;28;20089;-92
2023/06/29 03:37:19;;;;;;;1.77;1.42;;;;;;;;;;5078652;28;20050;-89
2023/06/29 03:39:45;;;;;;;2.38;1.58;;;;;;;;;;5076141;28;20032;-87
2023/06/29 03:42:12;;;;;;;1.65;1.00;;;;;;;;;;5057572;28;20031;-90
2023/06/29 03:44:39;;;;;;;2.00;1.58;;;;;;;;;;5057892;28;20109;-89
2023/06/29 03:47:06;;;;;;;1.40;0.85;;;;;;;;;;5077247;28;20017;-91
2023/06/29 03:49:31;;;;;;;1.98;1.45;;;;;;;;;;5060290;28;20384;-89
2023/06/29 03:51:57;;;;;;;1.20;1.10;;;;;;;;;;5060277;28;20088;-89
2023/06/29 03:54:22;;;;;;;2.25;1.25;;;;;;;;;;5075123;28;20026;-90
2023/06/29 03:56:48;;;;;;;1.55;1.15;;;;;;;;;;5060859;28;20464;-90
2023/06/29 03:59:13;;;;;;;2.30;1.33;;;;;;;;;;5059364;28;20024;-88
2023/06/29 04:01:41;;;;;;;2.10;1.08;;;;;;;;;;5054513;28;20032;-90
2023/06/29 04:04:07;;;;;;;2.22;0.85;;;;;;;;;;5076266;28;20028;-89
2023/06/29 04:06:33;;;;;;;2.35;1.52;;;;;;;;;;5057220;28;20024;-89
2023/06/29 04:08:58;;;;;;;1.60;1.45;;;;;;;;;;5072864;28;20031;-88
2023/06/29 04:11:24;;;;;;;1.10;0.80;;;;;;;;;;5051981;28;20123;-90
2023/06/29 04:13:49;;;;;;;1.40;1.10;;;;;;;;;;5075036;28;20484;-87
2023/06/29 04:16:15;;;;;;;1.40;1.27;;;;;;;;;;5074210;28;20090;-87
2023/06/29 04:18:40;;;;;;;1.95;0.93;;;;;;;;;;5074804;28;20027;-84
2023/06/29 04:21:06;;;;;;;1.67;1.42;;;;;;;;;;5075610;28;20821;-90
2023/06/29 04:23:32;;;;;;;1.15;1.05;;;;;;;;;;5052486;28;20029;-88
2023/06/29 04:26:03;;;;;;;2.67;1.90;;;;;;;;;;5053297;28;20564;-88
2023/06/29 04:28:37;;;;;;;2.30;1.33;;;;;;;;;;5054521;28;20086;-86
2023/06/29 04:31:03;;;;;;;2.10;1.58;;;;;;;;;;5053813;28;20036;-90
2023/06/29 04:33:28;;;;;;;2.17;1.23;;;;;;;;;;5066838;28;20098;-86
2023/06/29 04:35:55;;;;;;;2.33;1.45;;;;;;;;;;5075559;28;20377;-89
2023/06/29 04:38:25;;;;;;;2.17;1.70;;;;;;;;;;5050451;28;20492;-89
2023/06/29 04:40:53;;;;;;;3.83;2.30;;;;;;;;;;5070863;28;20044;-86
2023/06/29 04:43:24;;;;;;;2.47;1.45;;;;;;;;;;5048723;28;20384;-89
2023/06/29 04:45:50;;;;;;;3.50;1.35;;;;;;;;;;5052746;28;20480;-83
2023/06/29 04:48:15;;;;;;;2.38;1.27;;;;;;;;;;5070972;28;20024;-85
2023/06/29 04:50:41;;;;;;;2.88;2.08;;;;;;;;;;5072351;28;20048;-85
2023/06/29 04:53:09;;;;;;;3.60;1.85;;;;;;;;;;5076398;28;20036;-83
2023/06/29 04:55:39;;;;;;;2.47;1.73;;;;;;;;;;5069321;28;20029;-82
2023/06/29 04:58:05;;;;;;;1.75;1.05;;;;;;;;;;5069918;28;20029;-87
2023/06/29 05:00:31;;;;;;;4.43;2.38;;;;;;;;;;5069262;28;20477;-88
2023/06/29 05:02:56;;;;;;;1.42;1.23;;;;;;;;;;5070318;28;20024;-81
2023/06/29 05:05:22;;;;;;;1.38;1.10;;;;;;;;;;5065544;28;20037;-86
2023/06/29 05:07:48;;;;;;;2.50;1.65;;;;;;;;;;5070102;28;20028;-85
2023/06/29 05:10:13;;;;;;;2.33;1.77;;;;;;;;;;5070172;28;20025;-85
2023/06/29 05:12:39;;;;;;;2.45;1.85;;;;;;;;;;5068400;28;20380;-85
2023/06/29 05:15:04;;;;;;;1.77;1.45;;;;;;;;;;5051875;28;20398;-85
2023/06/29 05:17:30;;;;;;;1.95;1.10;;;;;;;;;;5069013;28;20048;-87
2023/06/29 05:19:55;;;;;;;4.93;1.92;;;;;;;;;;5070967;28;20042;-84
2023/06/29 05:22:21;;;;;;;2.70;2.15;;;;;;;;;;5046122;28;20066;-84
2023/06/29 05:24:47;;;;;;;2.03;1.83;;;;;;;;;;5052155;28;20503;-85
2023/06/29 05:27:12;;;;;;;1.95;1.65;;;;;;;;;;5074598;28;20492;-84
2023/06/29 05:29:38;;;;;;;2.50;1.83;;;;;;;;;;5083097;28;20033;-85
2023/06/29 05:32:04;;;;;;;1.15;0.95;;;;;;;;;;5067758;28;20032;-84
2023/06/29 05:34:30;;;;;;;1.50;0.93;;;;;;;;;;5068278;28;20024;-87
2023/06/29 05:36:55;;;;;;;1.85;1.40;;;;;;;;;;5070272;28;20028;-86
2023/06/29 05:39:21;;;;;;;1.95;1.23;;;;;;;;;;5066523;28;20106;-82
2023/06/29 05:41:46;;;;;;;4.22;1.63;;;;;;;;;;5066988;28;20515;-85
2023/06/29 05:44:12;;;;;;;1.90;1.60;;;;;;;;;;5047791;28;20031;-85
2023/06/29 05:46:37;;;;;;;1.33;1.23;;;;;;;;;;5052572;28;20020;-85
2023/06/29 05:49:03;;;;;;;2.80;1.63;;;;;;;;;;5055817;28;20025;-86
2023/06/29 05:51:28;;;;;;;2.55;2.05;;;;;;;;;;5055716;28;20037;-88
2023/06/29 05:53:54;;;;;;;3.10;1.88;;;;;;;;;;5073189;28;20077;-87
2023/06/29 05:56:20;;;;;;;3.33;2.25;;;;;;;;;;5073366;28;20362;-87
2023/06/29 05:58:46;;;;;;;3.30;2.97;;;;;;;;;;5073332;28;20032;-87
2023/06/29 06:01:12;;;;;;;3.08;1.77;;;;;;;;;;5055118;28;20544;-85
2023/06/29 06:03:39;;;;;;;1.95;1.55;;;;;;;;;;5072204;28;20051;-85
2023/06/29 06:06:05;;;;;;;2.72;2.00;;;;;;;;;;5053611;28;20028;-82
2023/06/29 06:08:31;;;;;;;2.13;1.25;;;;;;;;;;5072938;28;20029;-84
2023/06/29 06:10:56;;;;;;;2.88;2.30;;;;;;;;;;5056086;28;20039;-86
2023/06/29 06:13:22;;;;;;;3.28;1.95;;;;;;;;;;5055138;28;20502;-87
2023/06/29 06:15:47;;;;;;;2.47;1.55;;;;;;;;;;5055596;28;20384;-86
2023/06/29 06:18:13;;;;;;;2.28;1.85;;;;;;;;;;5054907;28;20407;-86
2023/06/29 06:20:38;;;;;;;2.38;1.58;;;;;;;;;;5055277;28;20028;-85
2023/06/29 06:23:04;;;;;;;3.70;2.53;;;;;;;;;;5070781;28;20028;-86
2023/06/29 06:25:29;;;;;;;2.58;2.13;;;;;;;;;;5087144;28;20140;-88
2023/06/29 06:27:54;;;;;;;1.77;1.27;;;;;;;;;;5072771;28;20519;-87
2023/06/29 06:30:22;;;;;;;2.00;1.63;;;;;;;;;;5088329;28;20024;-85
2023/06/29 06:32:49;;;;;;;2.28;1.33;;;;;;;;;;5073312;28;20551;-85
2023/06/29 06:35:16;;;;;;;3.03;2.13;;;;;;;;;;5073271;28;20024;-86
2023/06/29 06:37:41;;;;;;;1.73;1.20;;;;;;;;;;5053360;28;20033;-86
2023/06/29 06:40:08;;;;;;;2.38;1.73;;;;;;;;;;5072729;28;20098;-84
2023/06/29 06:42:35;;;;;;;3.67;2.40;;;;;;;;;;5072754;28;20033;-86
2023/06/29 06:45:03;;;;;;;3.58;1.33;;;;;;;;;;5073193;28;20123;-86
2023/06/29 06:47:29;;;;;;;3.58;2.40;;;;;;;;;;5053349;28;20024;-84
2023/06/29 06:49:55;;;;;;;1.80;1.25;;;;;;;;;;5070520;28;20025;-85
2023/06/29 06:52:20;;;;;;;2.65;1.65;;;;;;;;;;5054466;28;20190;-87
2023/06/29 06:54:45;;;;;;;2.50;1.52;;;;;;;;;;5072888;28;20081;-88
2023/06/29 06:57:12;;;;;;;3.75;2.38;;;;;;;;;;5054883;28;20115;-86
2023/06/29 06:59:37;;;;;;;1.70;1.13;;;;;;;;;;5071671;28;20028;-84
2023/06/29 07:02:04;;;;;;;3.17;2.05;;;;;;;;;;5052641;28;20040;-86
2023/06/29 07:04:30;;;;;;;1.40;1.17;;;;;;;;;;5071684;28;20036;-87
2023/06/29 07:06:55;;;;;;;1.67;1.50;;;;;;;;;;5053880;28;20388;-85
2023/06/29 07:09:21;;;;;;;1.95;1.50;;;;;;;;;;5088526;28;20024;-88
2023/06/29 07:11:46;;;;;;;2.58;1.50;;;;;;;;;;5053757;28;20111;-87
2023/06/29 07:14:11;;;;;;;1.95;1.50;;;;;;;;;;5052986;28;20032;-84
2023/06/29 07:16:37;;;;;;;2.63;1.90;;;;;;;;;;5070615;28;20035;-85
2023/06/29 07:19:05;;;;;;;2.08;1.25;;;;;;;;;;5072636;28;20431;-86
2023/06/29 07:21:31;;;;;;;2.65;1.45;;;;;;;;;;5072465;28;20511;-86
2023/06/29 07:23:56;;;;;;;1.75;1.17;;;;;;;;;;5053902;28;20111;-86
2023/06/29 07:26:22;;;;;;;1.70;1.20;;;;;;;;;;5049704;28;20044;-89
2023/06/29 07:28:48;;;;;;;1.90;1.45;;;;;;;;;;5072311;28;20051;-86
2023/06/29 07:31:15;;;;;;;4.20;2.17;;;;;;;;;;5069006;28;20025;-85
2023/06/29 07:33:43;;;;;;;2.58;1.70;;;;;;;;;;5055283;28;20477;-88
2023/06/29 07:36:09;;;;;;;3.28;2.40;;;;;;;;;;5070539;28;20484;-87
2023/06/29 07:38:34;;;;;;;2.35;1.50;;;;;;;;;;5070536;28;20063;-88
2023/06/29 07:41:03;;;;;;;1.50;1.02;;;;;;;;;;5054263;28;20024;-85
2023/06/29 07:43:28;;;;;;;3.00;1.83;;;;;;;;;;5073758;28;20092;-86
2023/06/29 07:45:54;;;;;;;1.90;1.60;;;;;;;;;;5068233;28;20121;-87
2023/06/29 07:48:19;;;;;;;0.95;0.77;;;;;;;;;;5072006;28;20055;-85
2023/06/29 07:50:45;;;;;;;1.48;1.08;;;;;;;;;;5089542;28;20417;-88
2023/06/29 07:53:10;;;;;;;2.30;1.15;;;;;;;;;;5073199;28;20104;-85
2023/06/29 07:55:36;;;;;;;1.13;0.90;;;;;;;;;;5067704;28;20112;-87
2023/06/29 07:58:01;;;;;;;0.98;0.63;;;;;;;;;;5073576;28;20369;-85
2023/06/29 08:00:27;;;;;;;0.70;0.60;;;;;;;;;;5070529;28;20115;-88
2023/06/29 08:02:52;;;;;;;1.48;0.90;;;;;;;;;;5053563;28;20441;-89
2023/06/29 08:05:18;;;;;;;1.92;1.00;;;;;;;;;;5070587;28;20024;-91
2023/06/29 08:07:43;;;;;;;0.82;0.60;;;;;;;;;;5068595;28;20020;-88
2023/06/29 08:10:09;;;;;;;0.95;0.60;;;;;;;;;;5070585;28;20040;-89
2023/06/29 08:12:35;;;;;;;1.63;1.17;;;;;;;;;;5050258;28;20016;-89
2023/06/29 08:15:04;;;;;;;0.68;0.60;;;;;;;;;;5074631;28;20451;-85
2023/06/29 08:17:29;;;;;;;1.10;0.70;;;;;;;;;;5049791;28;20028;-87
2023/06/29 08:19:55;;;;;;;0.63;0.50;;;;;;;;;;5070506;28;20693;-88
2023/06/29 08:22:20;;;;;;;1.17;1.02;;;;;;;;;;5071865;28;20024;-87
2023/06/29 08:24:46;;;;;;;1.48;0.70;;;;;;;;;;5054851;28;20025;-90
2023/06/29 08:27:11;;;;;;;1.48;1.20;;;;;;;;;;5068402;28;20067;-89
2023/06/29 08:29:41;;;;;;;1.70;1.02;;;;;;;;;;5072551;28;20040;-89
2023/06/29 08:32:08;;;;;;;2.78;1.13;;;;;;;;;;5052096;28;20028;-88
2023/06/29 08:34:33;;;;;;;1.50;1.10;;;;;;;;;;5048695;28;20107;-87
2023/06/29 08:36:58;;;;;;;1.10;0.57;;;;;;;;;;5068121;28;20108;-89
2023/06/29 08:39:24;;;;;;;1.13;1.02;;;;;;;;;;5053964;28;20056;-90
2023/06/29 08:41:50;;;;;;;1.13;0.95;;;;;;;;;;5052646;28;20028;-89
2023/06/29 08:44:16;;;;;;;1.60;1.08;;;;;;;;;;5067504;28;20016;-87
2023/06/29 08:46:43;;;;;;;1.77;1.35;;;;;;;;;;5072326;28;20034;-91
2023/06/29 08:49:10;;;;;;;1.30;0.93;;;;;;;;;;5054661;28;20449;-86
2023/06/29 08:51:41;;;;;;;1.00;0.80;;;;;;;;;;5049348;28;20476;-88
2023/06/29 08:54:08;;;;;;;1.17;0.80;;;;;;;;;;5068323;28;20036;-90
2023/06/29 08:56:34;;;;;;;1.05;0.95;;;;;;;;;;5047740;28;20035;-87
2023/06/29 08:59:00;;;;;;;0.50;0.47;;;;;;;;;;5054505;28;20021;-90
2023/06/29 09:01:26;;;;;;;0.70;0.60;;;;;;;;;;5050996;28;20024;-88
2023/06/29 09:03:52;;;;;;;1.15;1.08;;;;;;;;;;5051288;28;20103;-88
2023/06/29 09:06:18;;;;;;;1.05;0.98;;;;;;;;;;5059612;28;20060;-87
2023/06/29 09:08:44;;;;;;;0.90;0.70;;;;;;;;;;5070540;28;20023;-89
2023/06/29 09:11:09;;;;;;;1.05;0.68;;;;;;;;;;5062776;28;20024;-90
2023/06/29 09:13:36;;;;;;;1.13;0.85;;;;;;;;;;5084218;28;20095;-85
2023/06/29 09:16:03;;;;;;;0.60;0.50;;;;;;;;;;5083656;28;20020;-88
2023/06/29 09:18:29;;;;;;;5.13;0.90;;;;;;;;;;5065895;28;20044;-91
2023/06/29 09:20:55;;;;;;;2.38;0.98;;;;;;;;;;5068839;28;20028;-85
2023/06/29 09:23:21;;;;;;;0.85;0.70;;;;;;;;;;5053833;28;20036;-83
2023/06/29 09:25:51;;;;;;;0.63;0.50;;;;;;;;;;5066806;28;20124;-84
2023/06/29 09:28:18;;;;;;;1.05;0.93;;;;;;;;;;5064224;28;20081;-84
2023/06/29 09:30:43;;;;;;;1.15;1.02;;;;;;;;;;5071176;28;20078;-82
2023/06/29 09:33:13;;;;;;;1.13;0.80;;;;;;;;;;5073529;28;20032;-82
2023/06/29 09:35:47;;;;;;;1.08;0.95;;;;;;;;;;5086813;28;20094;-82
2023/06/29 09:38:15;;;;;;;0.73;0.68;;;;;;;;;;5072110;28;20423;-83
2023/06/29 09:40:52;;;;;;;1.17;0.73;;;;;;;;;;5051622;28;20375;-86
2023/06/29 09:43:28;;;;;;;1.05;0.95;;;;;;;;;;5068422;28;20032;-84
2023/06/29 09:46:07;;;;;;;1.08;0.65;;;;;;;;;;5049940;28;20025;-82
2023/06/29 09:48:33;;;;;;;0.87;0.63;;;;;;;;;;5051419;28;20427;-84
2023/06/29 09:50:58;;;;;;;0.80;0.60;;;;;;;;;;5068444;28;20021;-85
2023/06/29 09:53:31;;;;;;;1.08;0.68;;;;;;;;;;5055748;28;20085;-85
2023/06/29 09:56:00;;;;;;;0.70;0.70;;;;;;;;;;5051433;28;20036;-84
2023/06/29 09:58:28;;;;;;;0.82;0.50;;;;;;;;;;5055224;28;20368;-84
2023/06/29 10:00:58;;;;;;;1.15;0.85;;;;;;;;;;5071804;28;20029;-82
2023/06/29 10:03:24;;;;;;;0.70;0.50;;;;;;;;;;5075176;28;20119;-85
2023/06/29 10:05:54;;;;;;;0.55;0.55;;;;;;;;;;5076167;28;20033;-83
2023/06/29 10:08:22;;;;;;;1.73;1.05;;;;;;;;;;5071197;28;20396;-84
2023/06/29 10:10:51;;;;;;;0.95;0.75;;;;;;;;;;5062048;28;20155;-83
2023/06/29 10:13:19;;;;;;;1.27;1.13;;;;;;;;;;5076996;28;20031;-83
2023/06/29 10:15:46;;;;;;;0.80;0.80;;;;;;;;;;5078799;28;20105;-84
2023/06/29 10:18:28;;;;;;;0.70;0.40;;;;;;;;;;5058275;28;20111;-81
2023/06/29 10:20:55;;;;;;;3.05;1.30;;;;;;;;;;5059203;28;20067;-83
2023/06/29 10:23:22;;;;;;;1.35;0.75;;;;;;;;;;5073453;28;20037;-84
2023/06/29 10:25:50;;;;;;;0.60;0.60;;;;;;;;;;5058325;28;20044;-83
2023/06/29 10:28:17;;;;;;;0.47;0.47;;;;;;;;;;5076422;28;20110;-87
2023/06/29 10:30:48;;;;;;;0.57;0.40;;;;;;;;;;5059462;28;20059;-83
2023/06/29 10:33:23;;;;;;;0.73;0.60;;;;;;;;;;5058132;28;20089;-81
2023/06/29 10:36:02;;;;;;;0.95;0.80;;;;;;;;;;5056828;28;20029;-82
2023/06/29 10:38:32;;;;;;;0.82;0.43;;;;;;;;;;5058522;28;20070;-81
2023/06/29 10:40:58;;;;;;;0.77;0.40;;;;;;;;;;5059735;28;20025;-83
2023/06/29 10:43:27;;;;;;;0.65;0.47;;;;;;;;;;5059491;28;20099;-83
2023/06/29 10:45:53;;;;;;;0.43;0.43;;;;;;;;;;5057186;28;20036;-82
2023/06/29 10:48:19;;;;;;;4.13;0.93;;;;;;;;;;5076198;28;20028;-84
2023/06/29 10:50:47;;;;;;;0.20;0.20;;;;;;;;;;5077760;28;20100;-85
2023/06/29 10:53:17;;;;;;;0.22;0.22;;;;;;;;;;5058822;28;20052;-83
2023/06/29 10:55:49;;;;;;;0.55;0.45;;;;;;;;;;5056470;28;20035;-83
2023/06/29 10:58:26;;;;;;;0.30;0.30;;;;;;;;;;5076596;28;20519;-84
2023/06/29 11:00:53;;;;;;;0.68;0.50;;;;;;;;;;5073847;28;20024;-84
2023/06/29 11:03:23;;;;;;;0.82;0.45;;;;;;;;;;5059062;28;20024;-84
2023/06/29 11:05:50;;;;;;;0.50;0.50;;;;;;;;;;5055054;28;20157;-86
2023/06/29 11:08:17;;;;;;;1.23;0.68;;;;;;;;;;5076826;28;20253;-83
2023/06/29 11:10:42;;;;;;;1.33;0.30;;;;;;;;;;5053396;28;20074;-83
2023/06/29 11:13:09;;;;;;;1.00;0.73;;;;;;;;;;5074883;28;20423;-86
2023/06/29 11:15:36;;;;;;;0.50;0.40;;;;;;;;;;5071945;28;20040;-85
2023/06/29 11:18:06;;;;;;;0.65;0.50;;;;;;;;;;5074891;28;20370;-85
2023/06/29 11:20:36;;;;;;;0.65;0.43;;;;;;;;;;5077387;28;20039;-82
2023/06/29 11:23:02;;;;;;;1.17;0.90;;;;;;;;;;5074027;28;20025;-86
2023/06/29 11:25:29;;;;;;;0.98;0.68;;;;;;;;;;5073724;28;20035;-85
2023/06/29 11:27:55;;;;;;;1.65;1.05;;;;;;;;;;5071600;28;20024;-81
2023/06/29 11:30:21;;;;;;;0.60;0.60;;;;;;;;;;5076382;28;20021;-85
2023/06/29 11:32:50;;;;;;;0.47;0.38;;;;;;;;;;5071164;28;20376;-86
2023/06/29 11:35:20;;;;;;;0.43;0.40;;;;;;;;;;5055030;28;20032;-84
2023/06/29 11:37:45;;;;;;;;;;;;;;;;;;5051456;28;20036;-83
2023/06/29 11:40:21;;;;;;;0.98;0.68;;;;;;;;;;5071602;28;19920;-84
2023/06/29 11:42:49;;;;;;;0.60;0.60;;;;;;;;;;5053053;28;20029;-85
2023/06/29 11:45:16;;;;;;;0.73;0.57;;;;;;;;;;5054040;28;20032;-84
2023/06/29 11:47:44;;;;;;;1.70;1.00;;;;;;;;;;5053800;28;20017;-81
2023/06/29 11:50:10;;;;;;;0.77;0.65;;;;;;;;;;5072266;28;20104;-84
2023/06/29 11:52:39;;;;;;;0.57;0.50;;;;;;;;;;5077118;28;20039;-84
2023/06/29 11:55:07;;;;;;;0.90;0.70;;;;;;;;;;5077781;28;20408;-84
2023/06/29 11:57:33;;;;;;;1.60;1.00;;;;;;;;;;5075841;28;20388;-84
2023/06/29 12:00:00;;;;;;;0.45;0.40;;;;;;;;;;5071541;28;20547;-85
2023/06/29 12:02:27;;;;;;;1.27;0.77;;;;;;;;;;5052496;28;20463;-84
2023/06/29 12:05:03;;;;;;;0.57;0.57;;;;;;;;;;5050566;28;20052;-84
2023/06/29 12:07:45;;;;;;;2.00;0.82;;;;;;;;;;5084119;28;20021;-83
2023/06/29 12:10:21;;;;;;;0.63;0.50;;;;;;;;;;5052756;28;20024;-84
2023/06/29 12:13:00;;;;;;;1.63;0.80;;;;;;;;;;5069176;28;20545;-83
2023/06/29 12:15:27;;;;;;;1.40;0.60;;;;;;;;;;5069913;28;20058;-84
2023/06/29 12:18:05;;;;;;;0.65;0.60;;;;;;;;;;5070351;28;20046;-83
2023/06/29 12:20:42;;;;;;;0.45;0.45;;;;;;;;;;5067240;28;20029;-85
2023/06/29 12:23:10;;;;;;;0.93;0.65;;;;;;;;;;5051960;28;20472;-84
2023/06/29 12:25:52;;;;;;;0.57;0.47;;;;;;;;;;5069603;28;20060;-83
2023/06/29 12:28:18;;;;;;;0.40;0.35;;;;;;;;;;5069515;28;20020;-85
2023/06/29 12:30:43;;;;;;;0.52;0.50;;;;;;;;;;5069235;28;20024;-87
2023/06/29 12:33:10;;;;;;;0.75;0.60;;;;;;;;;;5067148;28;20050;-85
2023/06/29 12:35:36;;;;;;;0.65;0.60;;;;;;;;;;5043003;28;20032;-83
2023/06/29 12:38:02;;;;;;;0.20;0.20;;;;;;;;;;5051457;28;20035;-88
2023/06/29 12:40:28;;;;;;;0.90;0.90;;;;;;;;;;5072016;28;20024;-87
2023/06/29 12:42:54;;;;;;;0.45;0.40;;;;;;;;;;5052690;28;20028;-86
2023/06/29 12:45:20;;;;;;;0.77;0.55;;;;;;;;;;5069551;28;20495;-88
2023/06/29 12:47:45;;;;;;;1.33;0.90;;;;;;;;;;5046146;28;20020;-90
2023/06/29 12:50:10;;;;;;;0.40;0.40;;;;;;;;;;5070981;28;20527;-85
2023/06/29 12:52:36;;;;;;;0.98;0.88;;;;;;;;;;5068825;28;20028;-85
2023/06/29 12:55:02;;;;;;;0.93;0.60;;;;;;;;;;5052359;28;20047;-86
2023/06/29 12:57:28;;;;;;;0.47;0.43;;;;;;;;;;5065778;28;20201;-88
2023/06/29 12:59:59;;;;;;;1.02;0.77;;;;;;;;;;5073232;28;20045;-91
2023/06/29 13:02:25;;;;;;;0.85;0.70;;;;;;;;;;5073456;28;20029;-88
2023/06/29 13:04:51;;;;;;;0.65;0.63;;;;;;;;;;5054439;28;20495;-88
2023/06/29 13:07:17;;;;;;;0.50;0.50;;;;;;;;;;5072678;28;20361;-85
2023/06/29 13:09:47;;;;;;;0.70;0.60;;;;;;;;;;5074001;28;20107;-82
2023/06/29 13:12:14;;;;;;;1.65;0.82;;;;;;;;;;5072838;28;20024;-84
2023/06/29 13:14:44;;;;;;;0.85;0.55;;;;;;;;;;5074482;28;20032;-88
2023/06/29 13:17:10;;;;;;;0.38;0.38;;;;;;;;;;5053841;28;20113;-87
2023/06/29 13:19:39;;;;;;;0.98;0.40;;;;;;;;;;5073530;28;20028;-88
2023/06/29 13:22:05;;;;;;;0.43;0.38;;;;;;;;;;5055548;28;20056;-88
2023/06/29 13:24:31;;;;;;;0.30;0.30;;;;;;;;;;5053590;28;20043;-86
2023/06/29 13:26:57;;;;;;;0.40;0.30;;;;;;;;;;5051168;28;20103;-84
2023/06/29 13:29:23;;;;;;;0.50;0.50;;;;;;;;;;5045731;28;20033;-80
2023/06/29 13:31:49;;;;;;;0.88;0.60;;;;;;;;;;5066731;28;20016;-84
2023/06/29 13:34:14;;;;;;;0.63;0.40;;;;;;;;;;5069471;28;20051;-84
2023/06/29 13:36:40;;;;;;;0.70;0.50;;;;;;;;;;5054020;28;20035;-83
2023/06/29 13:39:05;;;;;;;0.65;0.30;;;;;;;;;;5073217;28;20077;-84
2023/06/29 13:41:38;;;;;;;0.80;0.68;;;;;;;;;;5054562;28;20108;-83
2023/06/29 13:44:05;;;;;;;0.40;0.40;;;;;;;;;;5055810;28;20024;-83
2023/06/29 13:46:34;;;;;;;0.80;0.70;;;;;;;;;;5072535;28;20036;-83
2023/06/29 13:49:00;;;;;;;0.57;0.50;;;;;;;;;;5070936;28;20034;-83
2023/06/29 13:51:30;;;;;;;0.20;0.20;;;;;;;;;;5072512;28;20068;-85
2023/06/29 13:53:56;;;;;;;0.40;0.40;;;;;;;;;;5072509;28;20421;-83
2023/06/29 13:56:22;;;;;;;0.55;0.52;;;;;;;;;;5054680;28;20111;-85
2023/06/29 13:58:49;;;;;;;1.33;0.70;;;;;;;;;;5055158;28;20032;-83
2023/06/29 14:01:15;;;;;;;2.05;0.45;;;;;;;;;;5054302;28;20025;-83
2023/06/29 14:03:40;;;;;;;0.60;0.50;;;;;;;;;;5054798;28;20061;-85
2023/06/29 14:06:06;;;;;;;1.25;0.57;;;;;;;;;;5072266;28;20033;-83
2023/06/29 14:08:34;;;;;;;0.40;0.30;;;;;;;;;;5054521;28;20063;-83
2023/06/29 14:11:00;;;;;;;0.43;0.40;;;;;;;;;;5071946;28;20025;-84
2023/06/29 14:13:25;;;;;;;0.90;0.82;;;;;;;;;;5072822;28;20040;-79
2023/06/29 14:15:51;;;;;;;1.52;0.70;;;;;;;;;;5070389;28;20040;-84
2023/06/29 14:18:16;;;;;;;0.40;0.40;;;;;;;;;;5071865;28;20032;-82
2023/06/29 14:20:42;;;;;;;0.47;0.47;;;;;;;;;;5073757;28;20028;-81
2023/06/29 14:23:08;;;;;;;0.40;0.30;;;;;;;;;;5073199;28;20027;-81
2023/06/29 14:25:34;;;;;;;1.65;0.68;;;;;;;;;;5071015;28;20178;-81
2023/06/29 14:27:59;;;;;;;0.30;0.17;;;;;;;;;;5054600;28;20459;-82
2023/06/29 14:30:25;;;;;;;0.38;0.38;;;;;;;;;;5069177;28;20540;-83
2023/06/29 14:32:50;;;;;;;0.40;0.40;;;;;;;;;;5072968;28;20141;-81
2023/06/29 14:35:16;;;;;;;0.57;0.32;;;;;;;;;;5069886;28;20021;-82
2023/06/29 14:37:41;;;;;;;0.95;0.47;;;;;;;;;;5072167;28;20081;-81
2023/06/29 14:40:07;;;;;;;0.95;0.55;;;;;;;;;;5072909;28;20044;-83
2023/06/29 14:42:33;;;;;;;0.45;0.45;;;;;;;;;;5072394;28;20032;-83